createdAt,value
2019-03-17T00:00:52.973Z,5.60
2019-03-17T00:03:21.493Z,5.60
2019-03-17T00:05:49.912Z,5.70
2019-03-17T00:08:18.421Z,5.70
2019-03-17T00:10:46.914Z,5.60
2019-03-17T00:13:17.600Z,5.60
2019-03-17T00:15:45.517Z,5.50
2019-03-17T00:18:13.954Z,5.30
2019-03-17T00:21:01.717Z,5.20
2019-03-17T00:23:30.174Z,5.10
2019-03-17T00:25:59.043Z,5.10
2019-03-17T00:28:27.507Z,5.10
2019-03-17T00:30:55.997Z,5.10
2019-03-17T00:33:24.730Z,5.10
2019-03-17T00:35:53.160Z,5.20
2019-03-17T00:38:21.616Z,5.20
2019-03-17T00:40:50.037Z,5.20
2019-03-17T00:43:18.465Z,5.10
2019-03-17T00:45:46.921Z,5.00
2019-03-17T00:48:15.357Z,4.90
2019-03-17T00:50:43.801Z,4.90
2019-03-17T00:53:12.228Z,5.00
2019-03-17T00:55:40.676Z,4.90
2019-03-17T00:58:09.108Z,4.90
2019-03-17T01:00:37.817Z,4.80
2019-03-17T01:03:06.570Z,4.70
2019-03-17T01:05:35.317Z,4.70
2019-03-17T01:08:03.750Z,4.70
2019-03-17T01:10:32.187Z,4.70
2019-03-17T01:13:00.621Z,4.70
2019-03-17T01:15:29.053Z,4.70
2019-03-17T01:17:57.730Z,4.70
2019-03-17T01:20:26.437Z,4.70
2019-03-17T01:22:54.866Z,4.70
2019-03-17T01:25:23.300Z,4.60
2019-03-17T01:27:51.724Z,4.50
2019-03-17T01:30:20.462Z,4.50
2019-03-17T01:32:48.885Z,4.40
2019-03-17T01:35:17.332Z,4.40
2019-03-17T01:37:45.757Z,4.30
2019-03-17T01:40:14.265Z,4.20
2019-03-17T01:42:42.976Z,4.20
2019-03-17T01:45:11.487Z,4.20
2019-03-17T01:47:39.914Z,4.20
2019-03-17T01:50:09.592Z,4.20
2019-03-17T01:52:38.337Z,4.20
2019-03-17T01:55:07.613Z,4.20
2019-03-17T01:57:36.042Z,4.20
2019-03-17T02:00:06.393Z,4.10
2019-03-17T02:02:34.825Z,3.90
2019-03-17T02:05:03.735Z,3.90
2019-03-17T02:07:32.167Z,4.00
2019-03-17T02:10:00.598Z,4.00
2019-03-17T02:12:29.026Z,3.90
2019-03-17T02:14:57.456Z,3.80
2019-03-17T02:17:25.889Z,3.80
2019-03-17T02:19:54.345Z,3.90
2019-03-17T02:22:22.838Z,3.90
2019-03-17T02:24:51.266Z,3.90
2019-03-17T02:27:19.692Z,3.90
2019-03-17T02:29:48.133Z,3.90
2019-03-17T02:32:16.562Z,4.00
2019-03-17T02:34:45.008Z,4.00
2019-03-17T02:37:13.431Z,4.00
2019-03-17T02:39:41.873Z,4.00
2019-03-17T02:42:10.312Z,4.00
2019-03-17T02:44:39.114Z,3.80
2019-03-17T02:47:07.538Z,3.80
2019-03-17T02:49:35.990Z,3.90
2019-03-17T02:52:04.513Z,3.90
2019-03-17T02:54:33.003Z,3.80
2019-03-17T02:57:01.432Z,3.80
2019-03-17T02:59:29.850Z,3.90
2019-03-17T03:01:58.293Z,3.90
2019-03-17T03:04:26.718Z,3.90
2019-03-17T03:07:14.496Z,3.80
2019-03-17T03:09:42.933Z,3.70
2019-03-17T03:12:11.358Z,3.70
2019-03-17T03:14:39.869Z,3.70
2019-03-17T03:17:08.298Z,3.70
2019-03-17T03:19:36.718Z,3.80
2019-03-17T03:22:05.154Z,3.80
2019-03-17T03:24:33.863Z,3.60
2019-03-17T03:29:29.578Z,3.50
2019-03-17T03:31:58.025Z,3.60
2019-03-17T03:34:26.766Z,3.60
2019-03-17T03:36:55.201Z,3.70
2019-03-17T03:39:23.625Z,3.60
2019-03-17T03:41:52.065Z,3.50
2019-03-17T03:44:20.500Z,3.50
2019-03-17T03:46:48.933Z,3.60
2019-03-17T03:49:17.361Z,3.70
2019-03-17T03:51:45.801Z,3.70
2019-03-17T03:54:14.221Z,3.80
2019-03-17T03:56:42.670Z,3.90
2019-03-17T03:59:11.081Z,3.90
2019-03-17T04:01:39.598Z,3.90
2019-03-17T04:04:08.029Z,4.00
2019-03-17T04:06:36.628Z,4.00
2019-03-17T04:09:07.302Z,3.90
2019-03-17T04:11:35.723Z,3.90
2019-03-17T04:14:04.297Z,4.00
2019-03-17T04:16:32.737Z,3.90
2019-03-17T04:19:01.163Z,4.00
2019-03-17T04:21:29.601Z,4.10
2019-03-17T04:23:58.032Z,4.20
2019-03-17T04:26:26.536Z,4.30
2019-03-17T04:28:55.311Z,4.30
2019-03-17T04:31:23.753Z,4.20
2019-03-17T04:33:52.173Z,4.10
2019-03-17T04:36:20.619Z,4.10
2019-03-17T04:38:49.341Z,4.00
2019-03-17T04:41:17.786Z,4.00
2019-03-17T04:43:46.213Z,3.90
2019-03-17T04:46:14.722Z,3.90
2019-03-17T04:48:43.174Z,3.90
2019-03-17T04:51:11.664Z,3.90
2019-03-17T04:53:40.343Z,3.80
2019-03-17T04:56:08.778Z,3.80
2019-03-17T04:58:37.203Z,3.80
2019-03-17T05:01:05.649Z,3.70
2019-03-17T05:03:34.077Z,3.70
2019-03-17T05:06:02.517Z,3.70
2019-03-17T05:08:30.941Z,3.60
2019-03-17T05:10:59.389Z,3.60
2019-03-17T05:13:27.813Z,3.50
2019-03-17T05:15:56.253Z,3.50
2019-03-17T05:18:24.669Z,3.60
2019-03-17T05:20:53.093Z,3.50
2019-03-17T05:23:21.539Z,3.50
2019-03-17T05:25:50.289Z,3.60
2019-03-17T05:28:18.976Z,3.60
2019-03-17T05:30:47.402Z,3.70
2019-03-17T05:33:15.845Z,3.80
2019-03-17T05:35:44.621Z,3.80
2019-03-17T05:38:13.068Z,3.90
2019-03-17T05:40:41.485Z,3.90
2019-03-17T05:43:09.921Z,3.80
2019-03-17T05:45:38.345Z,3.80
2019-03-17T05:48:06.793Z,3.80
2019-03-17T05:50:35.518Z,3.80
2019-03-17T05:53:03.959Z,3.90
2019-03-17T05:55:32.381Z,3.90
2019-03-17T05:58:00.817Z,3.90
2019-03-17T06:00:29.241Z,4.00
2019-03-17T06:02:58.021Z,4.10
2019-03-17T06:05:26.725Z,4.10
2019-03-17T06:07:55.180Z,4.10
2019-03-17T06:10:23.632Z,4.10
2019-03-17T06:12:52.062Z,4.10
2019-03-17T06:15:20.501Z,4.00
2019-03-17T06:17:48.946Z,4.10
2019-03-17T06:20:17.369Z,4.30
2019-03-17T06:22:46.061Z,4.40
2019-03-17T06:25:14.508Z,4.50
2019-03-17T06:27:43.009Z,4.60
2019-03-17T06:30:14.386Z,4.70
2019-03-17T06:32:42.817Z,4.80
2019-03-17T06:35:11.267Z,4.90
2019-03-17T06:37:40.085Z,5.00
2019-03-17T06:40:11.817Z,5.10
2019-03-17T06:42:39.467Z,5.20
2019-03-17T06:45:10.114Z,5.30
2019-03-17T06:47:38.538Z,5.40
2019-03-17T06:50:12.767Z,5.50
2019-03-17T06:52:41.224Z,5.60
2019-03-17T06:55:14.686Z,5.60
2019-03-17T06:57:43.112Z,5.70
2019-03-17T07:00:13.249Z,5.70
2019-03-17T07:02:42.065Z,5.90
2019-03-17T07:05:10.668Z,6.00
2019-03-17T07:07:44.412Z,6.10
2019-03-17T07:10:10.493Z,6.20
2019-03-17T07:12:38.921Z,6.30
2019-03-17T07:15:09.918Z,6.40
2019-03-17T07:17:38.837Z,6.50
2019-03-17T07:20:10.410Z,6.60
2019-03-17T07:22:38.844Z,6.70
2019-03-17T07:25:08.741Z,6.70
2019-03-17T07:27:37.193Z,6.80
2019-03-17T07:30:13.539Z,6.90
2019-03-17T07:32:42.287Z,7.00
2019-03-17T07:35:10.726Z,7.20
2019-03-17T07:37:39.161Z,7.30
2019-03-17T07:40:10.637Z,7.30
2019-03-17T07:42:39.074Z,7.40
2019-03-17T07:45:10.006Z,7.50
2019-03-17T07:47:38.438Z,7.60
2019-03-17T07:50:12.636Z,7.70
2019-03-17T07:52:41.137Z,7.70
2019-03-17T07:55:10.627Z,7.80
2019-03-17T07:57:39.053Z,7.80
2019-03-17T08:00:12.697Z,7.90
2019-03-17T08:02:41.126Z,7.90
2019-03-17T08:05:10.521Z,8.00
2019-03-17T08:07:39.077Z,8.10
2019-03-17T08:10:14.282Z,8.10
2019-03-17T08:12:42.973Z,8.20
2019-03-17T08:15:12.647Z,8.30
2019-03-17T08:17:41.069Z,8.40
2019-03-17T08:20:10.944Z,8.50
2019-03-17T08:22:39.658Z,8.60
2019-03-17T08:25:09.986Z,8.70
2019-03-17T08:27:38.422Z,8.80
2019-03-17T08:30:16.124Z,8.90
2019-03-17T08:32:44.563Z,9.10
2019-03-17T08:35:13.069Z,9.20
2019-03-17T08:37:41.497Z,9.30
2019-03-17T08:40:12.469Z,9.30
2019-03-17T08:42:40.898Z,9.50
2019-03-17T08:45:11.572Z,9.60
2019-03-17T08:47:40.002Z,9.60
2019-03-17T08:50:11.004Z,9.70
2019-03-17T08:52:39.581Z,9.70
2019-03-17T08:55:09.357Z,9.80
2019-03-17T08:57:37.790Z,9.90
2019-03-17T09:00:27.093Z,10.00
2019-03-17T09:02:55.531Z,10.10
2019-03-17T09:05:24.001Z,10.30
2019-03-17T09:07:52.430Z,10.30
2019-03-17T09:10:20.896Z,10.40
2019-03-17T09:12:49.590Z,10.50
2019-03-17T09:15:18.034Z,10.60
2019-03-17T09:17:46.470Z,10.70
2019-03-17T09:20:14.986Z,10.80
2019-03-17T09:22:43.425Z,10.90
2019-03-17T09:25:12.187Z,11.00
2019-03-17T09:27:40.652Z,11.10
2019-03-17T09:30:17.486Z,11.20
2019-03-17T09:32:45.939Z,11.20
2019-03-17T09:35:14.380Z,11.30
2019-03-17T09:37:42.814Z,11.40
2019-03-17T09:40:18.658Z,11.50
2019-03-17T09:42:47.109Z,11.50
2019-03-17T09:45:15.995Z,11.60
2019-03-17T09:47:44.425Z,11.70
2019-03-17T09:50:17.039Z,11.80
2019-03-17T09:52:45.473Z,11.90
2019-03-17T09:55:13.933Z,12.00
2019-03-17T09:57:42.647Z,12.00
2019-03-17T10:00:18.755Z,12.10
2019-03-17T10:02:47.187Z,12.20
2019-03-17T10:05:15.695Z,12.30
2019-03-17T10:07:44.253Z,12.30
2019-03-17T10:10:17.224Z,12.40
2019-03-17T10:12:45.656Z,12.50
2019-03-17T10:15:15.557Z,12.50
2019-03-17T10:17:43.990Z,12.50
2019-03-17T10:20:17.414Z,12.60
2019-03-17T10:22:45.847Z,12.70
2019-03-17T10:25:14.292Z,12.80
2019-03-17T10:27:42.737Z,12.90
2019-03-17T10:30:19.855Z,12.90
2019-03-17T10:32:48.292Z,13.00
2019-03-17T10:35:16.799Z,13.00
2019-03-17T10:37:45.265Z,13.20
2019-03-17T10:40:15.752Z,13.20
2019-03-17T10:42:44.251Z,13.30
2019-03-17T10:45:13.517Z,13.40
2019-03-17T10:47:41.948Z,13.40
2019-03-17T10:50:12.949Z,13.40
2019-03-17T10:52:41.474Z,13.50
2019-03-17T10:55:10.801Z,13.50
2019-03-17T10:57:39.245Z,13.70
2019-03-17T11:00:13.631Z,13.90
2019-03-17T11:02:42.128Z,14.00
2019-03-17T11:05:10.809Z,14.30
2019-03-17T11:07:39.241Z,14.50
2019-03-17T11:10:10.476Z,14.70
2019-03-17T11:12:38.930Z,14.70
2019-03-17T11:15:10.434Z,14.60
2019-03-17T11:17:38.884Z,14.70
2019-03-17T11:20:10.404Z,14.80
2019-03-17T11:22:38.849Z,15.10
2019-03-17T11:25:14.138Z,15.30
2019-03-17T11:27:42.649Z,15.50
2019-03-17T11:30:18.144Z,15.50
2019-03-17T11:32:46.586Z,15.70
2019-03-17T11:35:15.156Z,15.80
2019-03-17T11:37:43.619Z,16.00
2019-03-17T11:40:20.073Z,16.20
2019-03-17T11:42:50.085Z,16.20
2019-03-17T11:45:18.897Z,16.30
2019-03-17T11:48:06.753Z,16.30
2019-03-17T11:50:35.181Z,16.30
2019-03-17T11:53:03.631Z,16.40
2019-03-17T11:55:32.084Z,16.50
2019-03-17T11:58:00.589Z,16.70
2019-03-17T12:00:29.014Z,16.60
2019-03-17T12:02:57.464Z,16.60
2019-03-17T12:05:25.894Z,16.70
2019-03-17T12:07:54.342Z,16.90
2019-03-17T12:10:23.509Z,16.80
2019-03-17T12:12:52.023Z,16.90
2019-03-17T12:15:25.022Z,17.10
2019-03-17T12:17:53.819Z,17.10
2019-03-17T12:20:22.319Z,17.10
2019-03-17T12:22:50.761Z,17.10
2019-03-17T12:25:19.610Z,17.10
2019-03-17T12:27:48.063Z,17.20
2019-03-17T12:30:20.898Z,17.20
2019-03-17T12:32:50.288Z,17.20
2019-03-17T12:35:18.955Z,17.30
2019-03-17T12:37:47.457Z,17.20
2019-03-17T12:40:16.025Z,17.40
2019-03-17T12:42:44.487Z,17.40
2019-03-17T12:45:13.553Z,17.60
2019-03-17T12:47:42.069Z,17.70
2019-03-17T12:50:19.213Z,17.60
2019-03-17T12:52:47.688Z,17.50
2019-03-17T12:55:16.421Z,17.60
2019-03-17T12:57:44.938Z,17.70
2019-03-17T13:00:21.528Z,17.60
2019-03-17T13:02:50.360Z,17.60
2019-03-17T13:05:18.785Z,17.50
2019-03-17T13:07:47.315Z,17.40
2019-03-17T13:10:18.556Z,17.30
2019-03-17T13:12:47.017Z,17.20
2019-03-17T13:15:15.442Z,17.30
2019-03-17T13:17:43.964Z,17.50
2019-03-17T13:20:15.067Z,17.50
2019-03-17T13:22:43.577Z,17.30
2019-03-17T13:25:12.345Z,17.30
2019-03-17T13:27:40.873Z,17.40
2019-03-17T13:30:14.497Z,17.50
2019-03-17T13:32:42.938Z,17.50
2019-03-17T13:35:11.460Z,17.40
2019-03-17T13:37:39.911Z,17.30
2019-03-17T13:40:28.154Z,17.20
2019-03-17T13:42:46.742Z,17.10
2019-03-17T13:45:15.629Z,17.10
2019-03-17T13:47:44.084Z,17.10
2019-03-17T13:50:17.634Z,17.40
2019-03-17T13:52:46.082Z,17.60
2019-03-17T13:55:14.589Z,17.70
2019-03-17T13:57:45.950Z,17.80
2019-03-17T14:00:15.321Z,17.80
2019-03-17T14:02:43.785Z,17.90
2019-03-17T14:05:12.746Z,18.10
2019-03-17T14:07:41.207Z,18.00
2019-03-17T14:10:14.927Z,17.90
2019-03-17T14:12:46.127Z,17.90
2019-03-17T14:15:15.592Z,17.80
2019-03-17T14:17:44.186Z,17.80
2019-03-17T14:20:15.046Z,17.80
2019-03-17T14:22:43.485Z,17.70
2019-03-17T14:25:21.026Z,17.70
2019-03-17T14:27:49.469Z,17.90
2019-03-17T14:30:17.960Z,18.10
2019-03-17T14:32:46.425Z,18.00
2019-03-17T14:35:14.855Z,18.00
2019-03-17T14:37:43.308Z,18.10
2019-03-17T14:40:14.100Z,18.10
2019-03-17T14:42:42.966Z,18.20
2019-03-17T14:45:16.503Z,18.40
2019-03-17T14:47:45.488Z,18.40
2019-03-17T14:50:16.653Z,18.40
2019-03-17T14:52:45.185Z,18.30
2019-03-17T14:55:13.658Z,18.20
2019-03-17T14:57:42.113Z,18.30
2019-03-17T15:00:16.313Z,18.30
2019-03-17T15:02:45.264Z,18.30
2019-03-17T15:05:13.774Z,18.30
2019-03-17T15:07:42.274Z,18.30
2019-03-17T15:10:18.409Z,18.20
2019-03-17T15:12:46.930Z,18.20
2019-03-17T15:15:16.976Z,18.20
2019-03-17T15:17:45.477Z,18.20
2019-03-17T15:20:15.762Z,18.10
2019-03-17T15:22:44.445Z,18.10
2019-03-17T15:25:13.430Z,18.20
2019-03-17T15:27:42.149Z,18.20
2019-03-17T15:30:13.698Z,18.20
2019-03-17T15:32:41.697Z,18.20
2019-03-17T15:35:12.745Z,18.30
2019-03-17T15:37:41.176Z,18.30
2019-03-17T15:40:16.980Z,18.30
2019-03-17T15:42:45.417Z,18.30
2019-03-17T15:45:24.695Z,18.30
2019-03-17T15:47:53.132Z,18.10
2019-03-17T15:50:22.792Z,18.00
2019-03-17T15:52:51.651Z,18.00
2019-03-17T15:55:20.092Z,17.90
2019-03-17T15:57:58.286Z,18.10
2019-03-17T16:00:27.196Z,18.50
2019-03-17T16:02:55.822Z,18.60
2019-03-17T16:05:24.448Z,18.40
2019-03-17T16:07:52.890Z,18.30
2019-03-17T16:10:29.686Z,18.40
2019-03-17T16:13:01.225Z,18.50
2019-03-17T16:15:29.657Z,18.50
2019-03-17T16:17:58.099Z,18.20
2019-03-17T16:20:27.381Z,18.20
2019-03-17T16:22:55.885Z,18.10
2019-03-17T16:25:32.245Z,17.80
2019-03-17T16:28:00.673Z,17.60
2019-03-17T16:30:31.123Z,17.40
2019-03-17T16:32:59.621Z,17.20
2019-03-17T16:35:28.066Z,17.00
2019-03-17T16:37:56.813Z,16.90
2019-03-17T16:40:32.564Z,17.10
2019-03-17T16:43:00.999Z,17.10
2019-03-17T16:45:29.514Z,17.00
2019-03-17T16:47:58.013Z,16.80
2019-03-17T16:50:26.590Z,16.80
2019-03-17T16:52:55.029Z,16.70
2019-03-17T16:55:23.469Z,16.70
2019-03-17T16:57:51.993Z,16.50
2019-03-17T17:00:24.565Z,16.50
2019-03-17T17:02:53.499Z,16.30
2019-03-17T17:05:23.270Z,16.20
2019-03-17T17:07:52.607Z,16.10
2019-03-17T17:10:26.487Z,16.10
2019-03-17T17:12:55.046Z,16.10
2019-03-17T17:15:26.122Z,16.00
2019-03-17T17:17:54.557Z,16.00
2019-03-17T17:20:31.675Z,16.10
2019-03-17T17:23:00.307Z,16.00
2019-03-17T17:25:29.094Z,15.90
2019-03-17T17:27:57.845Z,15.80
2019-03-17T17:30:26.370Z,15.90
2019-03-17T17:32:54.816Z,15.80
2019-03-17T17:35:23.373Z,15.70
2019-03-17T17:37:52.311Z,15.70
2019-03-17T17:40:24.701Z,15.70
2019-03-17T17:42:53.235Z,15.70
2019-03-17T17:45:22.765Z,15.60
2019-03-17T17:47:51.372Z,15.40
2019-03-17T17:50:22.197Z,15.40
2019-03-17T17:52:50.658Z,15.30
2019-03-17T17:55:19.230Z,15.20
2019-03-17T17:57:47.970Z,15.10
2019-03-17T18:00:20.510Z,15.10
2019-03-17T18:02:48.936Z,15.00
2019-03-17T18:05:17.503Z,15.00
2019-03-17T18:07:46.581Z,14.90
2019-03-17T18:10:16.195Z,14.90
2019-03-17T18:12:44.698Z,14.80
2019-03-17T18:15:19.146Z,14.70
2019-03-17T18:17:47.990Z,14.70
2019-03-17T18:20:16.434Z,14.80
2019-03-17T18:22:44.865Z,14.80
2019-03-17T18:25:22.629Z,14.70
2019-03-17T18:27:51.518Z,14.60
2019-03-17T18:30:24.093Z,14.60
2019-03-17T18:32:52.529Z,14.60
2019-03-17T18:35:21.199Z,14.60
2019-03-17T18:37:51.228Z,14.80
2019-03-17T18:40:23.110Z,14.90
2019-03-17T18:42:51.860Z,14.70
2019-03-17T18:45:33.890Z,14.50
2019-03-17T18:48:02.389Z,14.30
2019-03-17T18:50:30.840Z,14.10
2019-03-17T18:52:59.453Z,13.80
2019-03-17T18:55:28.138Z,13.20
2019-03-17T18:57:56.605Z,12.90
2019-03-17T19:00:26.012Z,12.70
2019-03-17T19:02:54.445Z,12.50
2019-03-17T19:05:23.030Z,11.90
2019-03-17T19:07:51.925Z,11.40
2019-03-17T19:10:20.914Z,11.00
2019-03-17T19:12:49.644Z,10.40
2019-03-17T19:15:22.935Z,10.00
2019-03-17T19:17:51.958Z,9.70
2019-03-17T19:20:21.385Z,9.30
2019-03-17T19:22:50.170Z,9.20
2019-03-17T19:25:20.727Z,9.10
2019-03-17T19:27:50.035Z,9.10
2019-03-17T19:30:20.182Z,8.90
2019-03-17T19:32:48.686Z,8.70
2019-03-17T19:35:17.268Z,8.60
2019-03-17T19:37:45.708Z,8.50
2019-03-17T19:40:42.305Z,8.30
2019-03-17T19:43:10.735Z,8.10
2019-03-17T19:45:39.430Z,7.90
2019-03-17T19:48:07.862Z,7.80
2019-03-17T19:50:36.640Z,7.80
2019-03-17T19:53:05.074Z,7.60
2019-03-17T19:55:33.814Z,7.40
2019-03-17T19:58:02.239Z,7.30
2019-03-17T20:00:30.678Z,7.20
2019-03-17T20:02:59.113Z,7.10
2019-03-17T20:05:27.561Z,7.00
2019-03-17T20:07:55.990Z,6.80
2019-03-17T20:10:28.546Z,6.80
2019-03-17T20:12:57.122Z,6.80
2019-03-17T20:15:25.562Z,6.70
2019-03-17T20:17:53.999Z,6.70
2019-03-17T20:20:22.514Z,6.70
2019-03-17T20:22:50.941Z,6.70
2019-03-17T20:25:19.453Z,6.60
2019-03-17T20:27:47.891Z,6.70
2019-03-17T20:30:20.134Z,6.70
2019-03-17T20:32:48.558Z,6.70
2019-03-17T20:35:16.999Z,6.60
2019-03-17T20:37:45.496Z,6.50
2019-03-17T20:40:17.525Z,6.40
2019-03-17T20:42:45.957Z,6.50
2019-03-17T20:45:15.742Z,6.40
2019-03-17T20:47:44.250Z,6.40
2019-03-17T20:50:14.551Z,6.40
2019-03-17T20:52:43.001Z,6.40
2019-03-17T20:55:12.636Z,6.50
2019-03-17T20:57:41.073Z,6.40
2019-03-17T21:00:15.294Z,6.30
2019-03-17T21:02:43.733Z,6.30
2019-03-17T21:05:31.541Z,6.30
2019-03-17T21:07:59.966Z,6.20
2019-03-17T21:10:28.425Z,6.20
2019-03-17T21:12:57.218Z,6.20
2019-03-17T21:15:25.673Z,6.10
2019-03-17T21:17:54.105Z,6.00
2019-03-17T21:20:24.929Z,5.90
2019-03-17T21:22:53.684Z,6.00
2019-03-17T21:25:22.142Z,6.00
2019-03-17T21:27:50.561Z,5.90
2019-03-17T21:30:23.306Z,5.90
2019-03-17T21:32:51.812Z,5.90
2019-03-17T21:35:20.302Z,5.80
2019-03-17T21:37:48.754Z,5.90
2019-03-17T21:40:17.191Z,5.90
2019-03-17T21:42:45.638Z,5.80
2019-03-17T21:45:14.537Z,5.80
2019-03-17T21:47:42.984Z,5.90
2019-03-17T21:50:16.333Z,5.80
2019-03-17T21:52:44.773Z,5.80
2019-03-17T21:55:13.994Z,5.70
2019-03-17T21:57:42.607Z,5.70
2019-03-17T22:00:13.745Z,5.80
2019-03-17T22:02:42.188Z,5.70
2019-03-17T22:05:12.263Z,5.70
2019-03-17T22:07:49.482Z,5.60
2019-03-17T22:10:14.102Z,5.70
2019-03-17T22:12:42.598Z,5.80
2019-03-17T22:15:15.124Z,5.70
2019-03-17T22:17:43.633Z,5.60
2019-03-17T22:20:15.158Z,5.60
2019-03-17T22:22:42.889Z,5.60
2019-03-17T22:25:12.448Z,5.60
2019-03-17T22:27:40.922Z,5.60
2019-03-17T22:30:21.856Z,5.60
2019-03-17T22:32:50.290Z,5.60
2019-03-17T22:35:18.825Z,5.70
2019-03-17T22:37:47.324Z,5.80
2019-03-17T22:40:16.889Z,5.70
2019-03-17T22:42:46.001Z,5.80
2019-03-17T22:45:35.322Z,5.80
2019-03-17T22:48:03.757Z,5.70
2019-03-17T22:50:32.236Z,5.70
2019-03-17T22:53:00.689Z,5.60
2019-03-17T22:55:29.193Z,5.70
2019-03-17T22:57:59.242Z,5.70
2019-03-17T23:00:35.813Z,5.70
2019-03-17T23:03:05.081Z,5.70
2019-03-17T23:05:33.950Z,5.60
2019-03-17T23:08:02.721Z,5.60
2019-03-17T23:10:31.193Z,5.60
2019-03-17T23:12:59.901Z,5.60
2019-03-17T23:15:28.325Z,5.60
2019-03-17T23:17:56.833Z,5.60
2019-03-17T23:20:25.265Z,5.60
2019-03-17T23:22:53.742Z,5.60
2019-03-17T23:25:22.248Z,5.50
2019-03-17T23:27:50.998Z,5.40
2019-03-17T23:30:20.642Z,5.40
2019-03-17T23:32:49.686Z,5.30
2019-03-17T23:35:18.346Z,5.30
2019-03-17T23:37:46.904Z,5.30
2019-03-17T23:40:17.432Z,5.30
2019-03-17T23:42:45.872Z,5.30
2019-03-17T23:45:14.743Z,5.30
2019-03-17T23:47:43.250Z,5.30
2019-03-17T23:50:13.017Z,5.40
2019-03-17T23:52:41.523Z,5.40
2019-03-17T23:55:13.438Z,5.30
2019-03-17T23:57:42.396Z,5.30
